Time;durP1;ratioP1;P1;durP2;ratioP2;P2;SDS_P1;SDS_P2;PMS_P1;PMS_P2;Temp;Humidity;BMP_temperature;BMP_pressure;BME280_temperature;BME280_humidity;BME280_pressure;Samples;Min_cycle;Max_cycle;Signal;HPM_P1;HPM_P2
2022/11/08 00:03:54;;;;;;;;;;;;;;;20.98;58.41;100893.50;5068092;28;2146;-61
2022/11/08 00:14:35;;;;;;;;;;;;;;;20.97;58.44;100905.66;5068486;28;1667;-61
2022/11/08 00:17:02;;;;;;;;;;;;;;;20.95;58.45;100897.66;5067695;28;1655;-61
2022/11/08 00:19:28;;;;;;;;;;;;;;;20.97;58.39;100899.91;5070018;28;1688;-61
2022/11/08 00:21:54;;;;;;;;;;;;;;;20.96;58.50;100892.63;5068569;28;1918;-61
2022/11/08 00:24:21;;;;;;;;;;;;;;;20.97;58.44;100899.91;5069470;28;1719;-61
2022/11/08 00:26:47;;;;;;;;;;;;;;;20.95;58.20;100902.69;5076183;28;1715;-62
2022/11/08 00:29:13;;;;;;;;;;;;;;;20.94;58.30;100899.06;5074140;28;1627;-61
2022/11/08 00:31:39;;;;;;;;;;;;;;;20.91;58.26;100903.22;5071043;28;1600;-61
2022/11/08 00:34:06;;;;;;;;;;;;;;;20.89;58.50;100903.13;5078561;28;1726;-61
2022/11/08 00:36:32;;;;;;;;;;;;;;;20.88;58.53;100905.28;5070150;28;1771;-62
2022/11/08 00:38:58;;;;;;;;;;;;;;;20.89;58.68;100911.78;5077047;28;1636;-61
2022/11/08 00:41:25;;;;;;;;;;;;;;;20.88;58.27;100913.91;5080262;28;1906;-61
2022/11/08 00:43:51;;;;;;;;;;;;;;;20.86;58.55;100908.06;5071653;28;1825;-61
2022/11/08 00:46:17;;;;;;;;;;;;;;;20.91;58.38;100914.75;5069494;28;1659;-61
2022/11/08 00:48:44;;;;;;;;;;;;;;;20.92;58.65;100907.59;5067763;28;1888;-61
2022/11/08 00:51:10;;;;;;;;;;;;;;;20.91;58.16;100915.50;5068133;28;2004;-61
2022/11/08 00:53:37;;;;;;;;;;;;;;;20.89;58.36;100918.28;5069264;28;1873;-62
2022/11/08 00:56:04;;;;;;;;;;;;;;;20.91;58.24;100906.88;5068724;28;1777;-61
2022/11/08 00:58:30;;;;;;;;;;;;;;;20.92;58.20;100905.47;5066473;28;1779;-61
2022/11/08 01:00:57;;;;;;;;;;;;;;;20.91;58.36;100912.63;5068513;28;1906;-61
2022/11/08 01:03:23;;;;;;;;;;;;;;;20.92;58.26;100911.22;5069929;28;2078;-61
2022/11/08 01:05:50;;;;;;;;;;;;;;;20.93;58.20;100906.94;5069679;28;1691;-61
2022/11/08 01:08:17;;;;;;;;;;;;;;;20.92;58.22;100905.47;5071745;28;1683;-61
2022/11/08 01:10:44;;;;;;;;;;;;;;;20.91;58.27;100906.88;5068161;28;1909;-61
2022/11/08 01:13:10;;;;;;;;;;;;;;;20.90;58.33;100908.25;5065969;28;1897;-61
2022/11/08 01:15:39;;;;;;;;;;;;;;;20.91;58.25;100909.75;5066764;28;1882;-61
2022/11/08 01:18:06;;;;;;;;;;;;;;;20.88;58.28;100911.03;5068708;28;1639;-61
2022/11/08 01:20:32;;;;;;;;;;;;;;;20.89;58.39;100906.78;5066715;28;1957;-61
2022/11/08 01:22:59;;;;;;;;;;;;;;;20.88;58.49;100898.78;5070308;28;1926;-61
2022/11/08 01:25:25;;;;;;;;;;;;;;;20.87;58.49;100903.81;5068632;28;1620;-61
2022/11/08 01:27:51;;;;;;;;;;;;;;;20.88;58.17;100890.88;5070457;28;1797;-62
2022/11/08 01:30:17;;;;;;;;;;;;;;;20.88;58.23;100890.88;5066255;28;1784;-61
2022/11/08 01:32:44;;;;;;;;;;;;;;;20.89;58.25;100894.50;5062722;28;1779;-61
2022/11/08 01:35:10;;;;;;;;;;;;;;;20.87;58.27;100898.06;5065993;28;2563;-61
2022/11/08 01:37:36;;;;;;;;;;;;;;;20.87;58.43;100892.28;5066222;28;1687;-61
2022/11/08 01:40:04;;;;;;;;;;;;;;;20.86;58.16;100896.53;5067639;28;1691;-61
2022/11/08 01:42:30;;;;;;;;;;;;;;;20.88;58.31;100896.66;5064750;28;1910;-61
2022/11/08 01:45:00;;;;;;;;;;;;;;;20.84;58.40;100899.34;5065490;28;1802;-61
2022/11/08 01:47:26;;;;;;;;;;;;;;;20.86;58.20;100899.44;5064799;28;1909;-61
2022/11/08 01:49:56;;;;;;;;;;;;;;;20.86;58.42;100896.53;5066418;28;1794;-61
2022/11/08 01:52:24;;;;;;;;;;;;;;;20.87;58.38;100895.19;5067145;28;1806;-61
2022/11/08 01:54:53;;;;;;;;;;;;;;;20.86;58.39;100898.69;5067653;28;1687;-61
2022/11/08 01:57:20;;;;;;;;;;;;;;;20.85;58.46;100900.09;5065658;28;1916;-61
2022/11/08 01:59:46;;;;;;;;;;;;;;;20.84;58.33;100896.47;5066627;28;1672;-61
2022/11/08 02:02:13;;;;;;;;;;;;;;;20.85;58.32;100889.31;5072840;28;2047;-61
2022/11/08 02:04:39;;;;;;;;;;;;;;;20.85;58.22;100889.31;5079634;28;1877;-61
2022/11/08 02:07:05;;;;;;;;;;;;;;;20.84;58.21;100876.31;5079790;28;1623;-61
2022/11/08 02:09:32;;;;;;;;;;;;;;;20.86;58.37;100887.19;5072784;28;1717;-61
2022/11/08 02:11:58;;;;;;;;;;;;;;;20.84;58.44;100884.22;5074009;28;1635;-61
2022/11/08 02:14:25;;;;;;;;;;;;;;;20.85;58.21;100883.56;5067896;28;1604;-61
2022/11/08 02:16:51;;;;;;;;;;;;;;;20.85;58.37;100888.59;5068162;28;1620;-61
2022/11/08 02:19:24;;;;;;;;;;;;;;;20.83;58.25;100880.59;5070184;28;1694;-61
2022/11/08 02:21:52;;;;;;;;;;;;;;;20.85;58.17;100885.72;5076141;28;1933;-61
2022/11/08 02:24:18;;;;;;;;;;;;;;;20.84;58.44;100882.06;5069428;28;1663;-61
2022/11/08 02:26:45;;;;;;;;;;;;;;;20.84;58.40;100893.56;5072065;28;1987;-61
2022/11/08 02:29:24;;;;;;;;;;;;;;;20.84;58.37;100890.69;5072523;28;1703;-61
2022/11/08 02:31:51;;;;;;;;;;;;;;;20.84;58.33;100887.81;5068487;28;1770;-61
2022/11/08 02:34:17;;;;;;;;;;;;;;;20.84;58.35;100879.19;5074364;28;1821;-61
2022/11/08 02:36:44;;;;;;;;;;;;;;;20.82;58.17;100884.13;5067572;28;1853;-61
2022/11/08 02:39:10;;;;;;;;;;;;;;;20.82;58.34;100893.50;5064133;28;1900;-61
2022/11/08 02:41:36;;;;;;;;;;;;;;;20.83;58.23;100885.63;5063539;28;1906;-61
2022/11/08 02:44:03;;;;;;;;;;;;;;;20.82;58.41;100887.00;5067003;28;1647;-61
2022/11/08 02:46:29;;;;;;;;;;;;;;;20.80;58.30;100884.78;5065196;28;1666;-61
2022/11/08 02:48:55;;;;;;;;;;;;;;;20.80;58.33;100884.78;5078184;28;1775;-61
2022/11/08 02:51:22;;;;;;;;;;;;;;;20.82;58.20;100887.00;5072167;28;1900;-61
2022/11/08 02:53:48;;;;;;;;;;;;;;;20.81;58.36;100877.63;5068493;28;1747;-61
2022/11/08 02:56:14;;;;;;;;;;;;;;;20.81;58.38;100882.63;5071987;28;1820;-61
2022/11/08 02:58:41;;;;;;;;;;;;;;;20.81;58.15;100894.88;5073987;28;1689;-61
2022/11/08 03:01:07;;;;;;;;;;;;;;;20.80;58.34;100893.41;5069139;28;1861;-61
2022/11/08 03:03:33;;;;;;;;;;;;;;;20.80;58.39;100893.41;5064758;28;1914;-61
2022/11/08 03:06:00;;;;;;;;;;;;;;;20.80;58.25;100890.53;5066673;28;2060;-61
2022/11/08 03:08:26;;;;;;;;;;;;;;;20.79;58.23;100886.16;5067371;28;1816;-61
2022/11/08 03:10:52;;;;;;;;;;;;;;;20.79;58.46;100885.44;5066347;28;1647;-61
2022/11/08 03:13:19;;;;;;;;;;;;;;;20.78;58.47;100878.19;5068507;28;1612;-61
2022/11/08 03:15:45;;;;;;;;;;;;;;;20.78;58.20;100881.06;5071787;28;1893;-61
2022/11/08 03:18:11;;;;;;;;;;;;;;;20.77;58.23;100882.44;5068279;28;1706;-61
2022/11/08 03:20:38;;;;;;;;;;;;;;;20.80;58.14;100890.53;5068082;28;1615;-61
2022/11/08 03:23:05;;;;;;;;;;;;;;;20.76;58.43;100884.59;5071075;28;1974;-61
2022/11/08 03:25:31;;;;;;;;;;;;;;;20.77;58.24;100883.19;5070891;28;1845;-61
2022/11/08 03:28:01;;;;;;;;;;;;;;;20.76;58.41;100878.09;5068868;28;1754;-61
2022/11/08 03:30:28;;;;;;;;;;;;;;;20.77;58.35;100873.81;5069129;28;1667;-61
2022/11/08 03:32:54;;;;;;;;;;;;;;;20.76;58.26;100878.84;5070362;28;1608;-61
2022/11/08 03:35:20;;;;;;;;;;;;;;;20.78;58.17;100878.94;5071619;28;2130;-61
2022/11/08 03:37:50;;;;;;;;;;;;;;;20.79;58.24;100876.78;5071428;28;1913;-61
2022/11/08 03:40:17;;;;;;;;;;;;;;;20.80;58.24;100869.63;5069990;28;1902;-61
2022/11/08 03:42:44;;;;;;;;;;;;;;;20.75;58.24;100876.59;5071744;28;1918;-61
2022/11/08 03:45:10;;;;;;;;;;;;;;;20.78;58.04;100878.94;5068489;28;1638;-61
2022/11/08 03:47:40;;;;;;;;;;;;;;;20.81;57.96;100871.88;5066937;28;1857;-61
2022/11/08 03:50:06;;;;;;;;;;;;;;;20.82;58.20;100873.38;5069797;28;1717;-62
2022/11/08 03:52:40;;;;;;;;;;;;;;;20.77;58.01;100871.69;5071831;28;1723;-61
2022/11/08 03:55:06;;;;;;;;;;;;;;;20.82;58.01;100870.50;5068517;28;1660;-61
2022/11/08 03:57:32;;;;;;;;;;;;;;;20.86;57.92;100870.66;5070981;28;1940;-61
2022/11/08 03:59:59;;;;;;;;;;;;;;;20.85;58.01;100866.28;5071953;28;1639;-61
2022/11/08 04:02:25;;;;;;;;;;;;;;;20.83;57.95;100863.31;5070826;28;1914;-61
2022/11/08 04:04:51;;;;;;;;;;;;;;;20.86;57.77;100864.88;5070170;28;1742;-61
2022/11/08 04:07:18;;;;;;;;;;;;;;;20.87;57.99;100860.63;5069679;28;1888;-61
2022/11/08 04:09:44;;;;;;;;;;;;;;;20.81;57.94;100868.25;5069530;28;1892;-61
2022/11/08 04:15:13;;;;;;;;;;;;;;;20.89;57.95;100875.13;5072520;28;1623;-61
2022/11/08 04:23:10;;;;;;;;;;;;;;;20.92;57.64;100876.69;5071471;28;1918;-61
2022/11/08 04:25:36;;;;;;;;;;;;;;;21.04;57.56;100876.47;5068821;28;1925;-61
2022/11/08 04:28:02;;;;;;;;;;;;;;;20.90;57.70;100878.72;5071335;28;1661;-61
2022/11/08 04:30:29;;;;;;;;;;;;;;;20.92;57.85;100882.44;5072942;28;1921;-61
2022/11/08 04:32:55;;;;;;;;;;;;;;;20.90;57.67;100885.22;5071691;28;1607;-61
2022/11/08 04:35:21;;;;;;;;;;;;;;;20.94;57.91;100878.91;5074553;28;1663;-61
2022/11/08 04:37:48;;;;;;;;;;;;;;;20.93;57.76;100872.41;5072873;28;1676;-61
2022/11/08 04:40:14;;;;;;;;;;;;;;;20.93;57.73;100875.28;5071320;28;1699;-61
2022/11/08 04:42:44;;;;;;;;;;;;;;;20.94;57.90;100876.03;5074284;28;1977;-61
2022/11/08 04:45:10;;;;;;;;;;;;;;;20.94;57.72;100881.78;5074115;28;1640;-61
2022/11/08 04:47:36;;;;;;;;;;;;;;;20.98;57.66;100879.09;5077185;28;1663;-62
2022/11/08 04:50:09;;;;;;;;;;;;;;;20.97;57.72;100877.59;5076056;28;1667;-62
2022/11/08 04:52:35;;;;;;;;;;;;;;;20.97;57.77;100879.75;5075012;28;1837;-61
2022/11/08 04:55:02;;;;;;;;;;;;;;;20.97;57.66;100883.38;5072304;28;1778;-61
2022/11/08 04:57:28;;;;;;;;;;;;;;;20.97;57.73;100883.38;5075537;28;1786;-61
2022/11/08 04:59:54;;;;;;;;;;;;;;;20.97;57.89;100883.38;5074793;28;1619;-61
2022/11/08 05:02:21;;;;;;;;;;;;;;;20.99;57.81;100876.97;5074063;28;1989;-61
2022/11/08 05:04:47;;;;;;;;;;;;;;;20.99;57.85;100885.59;5073114;28;1635;-61
2022/11/08 05:07:14;;;;;;;;;;;;;;;20.97;57.87;100882.63;5070647;28;1671;-62
2022/11/08 05:09:40;;;;;;;;;;;;;;;20.96;57.86;100876.13;5075225;28;1658;-61
2022/11/08 05:12:06;;;;;;;;;;;;;;;20.94;57.60;100867.41;5071623;28;1893;-61
2022/11/08 05:14:33;;;;;;;;;;;;;;;20.98;57.69;100875.47;5075448;28;1729;-61
2022/11/08 05:16:59;;;;;;;;;;;;;;;20.98;57.66;100870.47;5074570;28;1669;-62
2022/11/08 05:24:55;;;;;;;;;;;;;;;20.99;57.67;100869.06;5075968;28;1894;-61
2022/11/08 05:27:22;;;;;;;;;;;;;;;21.00;57.87;100870.53;5075063;28;1764;-61
2022/11/08 05:29:48;;;;;;;;;;;;;;;21.00;57.60;100861.91;5077239;28;1627;-61
2022/11/08 05:32:14;;;;;;;;;;;;;;;21.01;57.71;100859.78;5080540;28;1705;-61
2022/11/08 05:34:41;;;;;;;;;;;;;;;21.03;57.56;100865.63;5078363;28;2346;-61
2022/11/08 05:37:07;;;;;;;;;;;;;;;21.03;57.68;100857.00;5079190;28;1747;-61
2022/11/08 05:39:33;;;;;;;;;;;;;;;21.03;57.76;100862.75;5078195;28;1806;-61
2022/11/08 05:42:00;;;;;;;;;;;;;;;21.00;57.64;100858.28;5074596;28;2004;-61
2022/11/08 05:44:26;;;;;;;;;;;;;;;21.01;57.75;100859.78;5079906;28;1882;-61
2022/11/08 05:46:52;;;;;;;;;;;;;;;21.01;57.49;100860.50;5077548;28;1675;-61
2022/11/08 05:49:18;;;;;;;;;;;;;;;20.93;58.14;100855.13;5079538;28;1778;-61
2022/11/08 05:51:45;;;;;;;;;;;;;;;20.91;57.92;100857.94;5079933;28;1620;-61
2022/11/08 05:54:12;;;;;;;;;;;;;;;20.88;58.14;100867.84;5071109;28;1588;-61
2022/11/08 05:56:38;;;;;;;;;;;;;;;20.90;58.11;100865.06;5070823;28;1853;-62
2022/11/08 05:59:04;;;;;;;;;;;;;;;20.89;58.20;100878.00;5070192;28;2804;-61
2022/11/08 06:01:31;;;;;;;;;;;;;;;20.93;58.40;100875.28;5070716;28;2442;-61
2022/11/08 06:03:57;;;;;;;;;;;;;;;20.92;58.35;100873.81;5069350;28;2355;-61
2022/11/08 06:06:23;;;;;;;;;;;;;;;20.96;58.27;100873.25;5072925;28;1644;-62
2022/11/08 06:08:50;;;;;;;;;;;;;;;21.09;58.09;100866.59;5073023;28;1806;-61
2022/11/08 06:11:20;;;;;;;;;;;;;;;21.09;58.60;100872.38;5069220;28;1766;-60
2022/11/08 06:13:46;;;;;;;;;;;;;;;21.10;58.27;100878.88;5068939;28;1740;-60
2022/11/08 06:16:13;;;;;;;;;;;;;;;21.10;58.32;100873.88;5067351;28;1695;-60
2022/11/08 06:18:39;;;;;;;;;;;;;;;21.09;58.88;100886.03;5053837;28;1783;-60
2022/11/08 06:21:06;;;;;;;;;;;;;;;21.09;58.69;100877.38;5069078;28;1734;-61
2022/11/08 06:23:33;;;;;;;;;;;;;;;21.10;58.69;100884.66;5071490;28;1914;-63
2022/11/08 06:25:59;;;;;;;;;;;;;;;21.08;58.54;100881.69;5072603;28;2374;-60
2022/11/08 06:28:26;;;;;;;;;;;;;;;21.09;58.85;100883.16;5070327;28;2653;-60
2022/11/08 06:30:52;;;;;;;;;;;;;;;21.10;58.83;100896.16;5075874;28;1620;-60
2022/11/08 06:33:19;;;;;;;;;;;;;;;21.11;59.09;100886.84;5074431;28;1610;-60
2022/11/08 06:35:46;;;;;;;;;;;;;;;21.12;58.81;100881.88;5071315;28;1612;-60
2022/11/08 06:38:12;;;;;;;;;;;;;;;21.12;58.81;100891.22;5074228;28;1560;-60
2022/11/08 06:40:38;;;;;;;;;;;;;;;21.12;58.73;100890.50;5074181;28;1660;-60
2022/11/08 06:43:04;;;;;;;;;;;;;;;21.02;58.77;100892.91;5076642;28;1918;-59
2022/11/08 06:45:31;;;;;;;;;;;;;;;20.99;58.96;100885.59;5076831;28;1601;-58
2022/11/08 06:48:01;;;;;;;;;;;;;;;21.09;58.83;100891.78;5076330;28;1794;-58
2022/11/08 06:50:27;;;;;;;;;;;;;;;21.14;58.81;100896.31;5071551;28;1700;-61
2022/11/08 06:52:54;;;;;;;;;;;;;;;21.10;59.20;100890.41;5074953;28;1794;-60
2022/11/08 06:55:20;;;;;;;;;;;;;;;21.11;58.97;100897.63;5074099;28;1798;-61
2022/11/08 06:57:47;;;;;;;;;;;;;;;21.10;58.79;100890.41;5077182;28;1615;-60
2022/11/08 07:00:14;;;;;;;;;;;;;;;21.09;58.91;100900.44;5076664;28;1634;-61
2022/11/08 07:02:40;;;;;;;;;;;;;;;21.10;58.73;100890.41;5078315;28;1965;-61
2022/11/08 07:05:07;;;;;;;;;;;;;;;21.09;58.88;100891.78;5074062;28;1531;-61
2022/11/08 07:07:33;;;;;;;;;;;;;;;21.10;59.02;100894.03;5077665;28;1627;-61
2022/11/08 07:10:00;;;;;;;;;;;;;;;21.10;59.14;100891.16;5079176;28;1584;-60
2022/11/08 07:12:29;;;;;;;;;;;;;;;21.11;58.98;100886.13;5077185;28;1614;-61
2022/11/08 07:14:55;;;;;;;;;;;;;;;21.12;58.92;100887.63;5078960;28;1778;-61
2022/11/08 07:17:22;;;;;;;;;;;;;;;21.12;58.93;100887.63;5078248;28;1770;-61
2022/11/08 07:19:48;;;;;;;;;;;;;;;21.14;58.87;100887.69;5078448;28;1615;-60
2022/11/08 07:22:14;;;;;;;;;;;;;;;21.15;58.81;100880.53;5077464;28;1694;-61
2022/11/08 07:24:41;;;;;;;;;;;;;;;21.15;58.99;100889.19;5075153;28;1930;-61
2022/11/08 07:27:07;;;;;;;;;;;;;;;21.17;58.62;100895.03;5078336;28;1862;-60
2022/11/08 07:29:33;;;;;;;;;;;;;;;21.18;58.94;100890.75;5078265;28;1620;-61
2022/11/08 07:32:00;;;;;;;;;;;;;;;21.17;58.81;100895.03;5075871;28;1715;-61
2022/11/08 07:34:26;;;;;;;;;;;;;;;21.19;58.57;100891.47;5079073;28;1624;-61
2022/11/08 07:36:52;;;;;;;;;;;;;;;21.18;58.90;100890.75;5070549;28;1766;-60
2022/11/08 07:39:19;;;;;;;;;;;;;;;21.18;58.89;100896.50;5072578;28;1723;-61
2022/11/08 07:41:45;;;;;;;;;;;;;;;21.19;58.56;100892.25;5071041;28;1533;-61
2022/11/08 07:44:11;;;;;;;;;;;;;;;21.18;58.90;100896.50;5063363;28;1971;-61
2022/11/08 07:46:38;;;;;;;;;;;;;;;21.20;58.70;100882.19;5068799;28;1591;-61
2022/11/08 07:49:04;;;;;;;;;;;;;;;21.18;58.69;100890.00;5071548;28;1643;-60
2022/11/08 07:51:30;;;;;;;;;;;;;;;21.18;58.66;100902.25;5059162;28;1805;-61
2022/11/08 07:53:57;;;;;;;;;;;;;;;21.20;58.82;100892.97;5056350;28;1616;-61
2022/11/08 07:56:28;;;;;;;;;;;;;;;21.19;58.68;100888.59;5055268;28;1814;-61
2022/11/08 07:58:54;;;;;;;;;;;;;;;21.19;58.60;100877.84;5050730;28;1619;-61
2022/11/08 08:01:21;;;;;;;;;;;;;;;21.20;58.69;100887.97;5054684;28;1791;-61
2022/11/08 08:03:47;;;;;;;;;;;;;;;21.22;58.79;100878.66;5056820;28;1971;-61
2022/11/08 08:06:13;;;;;;;;;;;;;;;21.22;58.48;100873.66;5051988;28;1564;-61
2022/11/08 08:08:40;;;;;;;;;;;;;;;21.23;58.68;100875.13;5054751;28;1806;-61
2022/11/08 08:11:06;;;;;;;;;;;;;;;21.23;58.54;100874.38;5059788;28;2044;-61
2022/11/08 08:13:32;;;;;;;;;;;;;;;21.23;58.53;100875.13;5062047;28;2003;-61
2022/11/08 08:15:59;;;;;;;;;;;;;;;21.23;58.55;100875.13;5063785;28;1643;-61
2022/11/08 08:18:26;;;;;;;;;;;;;;;21.23;58.51;100880.88;5062747;28;1607;-60
2022/11/08 08:20:52;;;;;;;;;;;;;;;21.24;58.60;100873.75;5060680;28;1680;-61
2022/11/08 08:23:18;;;;;;;;;;;;;;;21.23;58.78;100869.34;5059725;28;1980;-61
2022/11/08 08:25:45;;;;;;;;;;;;;;;21.33;58.56;100872.69;5057258;28;1671;-61
2022/11/08 08:28:12;;;;;;;;;;;;;;;21.23;58.52;100868.63;5063268;28;1651;-61
2022/11/08 08:30:39;;;;;;;;;;;;;;;21.22;58.56;100867.88;5057420;28;1790;-61
2022/11/08 08:33:07;;;;;;;;;;;;;;;21.22;58.66;100865.00;5064158;28;1548;-60
2022/11/08 08:35:53;;;;;;;;;;;;;;;21.22;58.86;100856.38;5065830;28;1763;-60
2022/11/08 08:38:19;;;;;;;;;;;;;;;21.22;58.83;100867.88;5058747;28;1842;-61
2022/11/08 08:40:46;;;;;;;;;;;;;;;21.21;58.71;100860.66;5060273;28;1873;-61
2022/11/08 08:43:12;;;;;;;;;;;;;;;21.23;58.80;100860.72;5059237;28;1910;-61
2022/11/08 08:45:40;;;;;;;;;;;;;;;21.21;58.84;100854.91;5057306;28;1877;-61
2022/11/08 08:48:07;;;;;;;;;;;;;;;21.23;58.79;100854.97;5063274;28;1794;-61
2022/11/08 08:50:33;;;;;;;;;;;;;;;21.26;58.61;100855.81;5062298;28;1604;-61
2022/11/08 08:53:03;;;;;;;;;;;;;;;21.26;58.63;100852.94;5062435;28;1652;-61
2022/11/08 08:55:29;;;;;;;;;;;;;;;21.26;58.68;100841.41;5059239;28;1730;-61
2022/11/08 08:57:56;;;;;;;;;;;;;;;21.26;58.36;100856.56;5066538;28;2012;-60
2022/11/08 09:00:22;;;;;;;;;;;;;;;21.28;58.80;100853.75;5063807;28;1582;-61
2022/11/08 09:03:08;;;;;;;;;;;;;;;21.27;58.76;100851.53;5063110;28;1981;-61
2022/11/08 09:05:35;;;;;;;;;;;;;;;21.27;58.84;100840.75;5060635;28;1826;-60
2022/11/08 09:08:01;;;;;;;;;;;;;;;21.27;58.50;100858.03;5061759;28;1608;-63
2022/11/08 09:10:28;;;;;;;;;;;;;;;21.27;58.60;100857.28;5062705;28;1837;-60
2022/11/08 09:12:54;;;;;;;;;;;;;;;21.27;58.43;100855.13;5067387;28;1747;-61
2022/11/08 09:15:20;;;;;;;;;;;;;;;21.26;58.50;100850.78;5064251;28;1660;-61
2022/11/08 09:17:46;;;;;;;;;;;;;;;21.26;58.54;100856.56;5065996;28;1610;-60
2022/11/08 09:20:13;;;;;;;;;;;;;;;21.26;58.58;100853.66;5064767;28;1707;-63
2022/11/08 09:22:39;;;;;;;;;;;;;;;21.26;58.63;100856.56;5066517;28;1647;-62
2022/11/08 09:25:06;;;;;;;;;;;;;;;21.25;58.54;100849.28;5069927;28;1906;-63
2022/11/08 09:27:32;;;;;;;;;;;;;;;21.33;58.27;100848.91;5064744;28;1806;-63
2022/11/08 09:29:58;;;;;;;;;;;;;;;21.27;58.50;100846.50;5070577;28;1865;-63
2022/11/08 09:32:27;;;;;;;;;;;;;;;21.28;58.63;100841.47;5060928;28;1841;-62
2022/11/08 09:35:13;;;;;;;;;;;;;;;21.26;58.51;100853.66;5066455;28;1650;-62
2022/11/08 09:37:39;;;;;;;;;;;;;;;21.25;58.52;100849.28;5065228;28;1803;-62
2022/11/08 09:40:13;;;;;;;;;;;;;;;21.23;58.58;100845.59;5065646;28;1655;-62
2022/11/08 09:42:39;;;;;;;;;;;;;;;21.25;58.57;100849.28;5068268;28;1710;-62
2022/11/08 09:45:23;;;;;;;;;;;;;;;21.21;58.74;100846.25;5065496;28;1974;-62
2022/11/08 09:47:59;;;;;;;;;;;;;;;21.23;58.72;100846.31;5061709;28;1711;-62
2022/11/08 09:50:33;;;;;;;;;;;;;;;21.23;58.58;100834.06;5064001;28;1643;-62
2022/11/08 09:53:10;;;;;;;;;;;;;;;21.23;58.41;100834.81;5070564;28;1697;-62
2022/11/08 09:55:40;;;;;;;;;;;;;;;21.21;58.96;100834.75;5067133;28;1556;-62
2022/11/08 09:58:07;;;;;;;;;;;;;;;21.21;58.83;100831.09;5070969;28;1646;-62
2022/11/08 10:00:34;;;;;;;;;;;;;;;21.22;58.55;100830.44;5064081;28;1806;-62
2022/11/08 10:03:00;;;;;;;;;;;;;;;21.21;58.60;100826.09;5068971;28;1588;-62
2022/11/08 10:05:27;;;;;;;;;;;;;;;21.20;58.83;100830.38;5075286;28;1964;-62
2022/11/08 10:07:57;;;;;;;;;;;;;;;21.19;58.75;100828.91;5073767;28;1616;-62
2022/11/08 10:10:29;;;;;;;;;;;;;;;21.19;58.87;100817.38;5069527;28;1728;-62
2022/11/08 10:13:05;;;;;;;;;;;;;;;21.19;58.57;100823.13;5068323;28;1984;-62
2022/11/08 10:15:37;;;;;;;;;;;;;;;21.18;58.65;100815.88;5068884;28;1751;-62
2022/11/08 10:18:11;;;;;;;;;;;;;;;21.20;58.90;100810.19;5070222;28;1581;-62
2022/11/08 10:20:59;;;;;;;;;;;;;;;21.20;58.73;100810.19;5069661;28;1687;-62
2022/11/08 10:23:32;;;;;;;;;;;;;;;21.18;58.79;100813.00;5069488;28;1906;-62
2022/11/08 10:25:59;;;;;;;;;;;;;;;21.21;58.70;100813.81;5072170;28;1691;-62
2022/11/08 10:28:48;;;;;;;;;;;;;;;21.19;58.83;100810.84;5072483;28;1711;-62
2022/11/08 10:31:17;;;;;;;;;;;;;;;21.19;58.58;100811.63;5052657;28;1561;-62
2022/11/08 10:33:50;;;;;;;;;;;;;;;21.19;58.81;100811.63;5049756;28;1846;-62
2022/11/08 10:36:21;;;;;;;;;;;;;;;21.18;58.61;100809.38;5063324;28;1780;-62
2022/11/08 10:39:06;;;;;;;;;;;;;;;21.17;58.59;100814.41;5060791;28;1814;-62
2022/11/08 10:41:37;;;;;;;;;;;;;;;21.20;58.71;100801.56;5052271;28;1899;-62
2022/11/08 10:44:04;;;;;;;;;;;;;;;21.16;58.92;100801.38;5065595;28;1972;-62
2022/11/08 10:46:43;;;;;;;;;;;;;;;21.18;58.53;100801.47;5055378;28;1655;-62
2022/11/08 10:49:11;;;;;;;;;;;;;;;21.17;58.71;100802.16;5053076;28;1674;-62
2022/11/08 10:51:37;;;;;;;;;;;;;;;21.18;58.72;100798.59;5048173;28;1799;-62
2022/11/08 10:54:03;;;;;;;;;;;;;;;21.18;58.77;100803.63;5054536;28;1668;-62
2022/11/08 10:56:30;;;;;;;;;;;;;;;21.17;58.50;100791.38;5056539;28;1798;-62
2022/11/08 10:59:02;;;;;;;;;;;;;;;21.18;58.81;100797.88;5068559;28;1647;-62
2022/11/08 11:01:29;;;;;;;;;;;;;;;21.17;58.56;100791.38;5064817;28;3486;-62
2022/11/08 11:03:55;;;;;;;;;;;;;;;21.18;58.79;100792.09;5053840;28;2375;-62
2022/11/08 11:06:32;;;;;;;;;;;;;;;21.17;58.58;100791.38;5051693;28;2300;-62
2022/11/08 11:08:59;;;;;;;;;;;;;;;21.16;58.62;100789.88;5053068;28;1794;-62
2022/11/08 11:11:31;;;;;;;;;;;;;;;21.18;58.60;100769.06;5062598;28;1710;-62
2022/11/08 11:14:13;;;;;;;;;;;;;;;21.16;58.56;100778.34;5060069;28;1807;-62
2022/11/08 11:16:49;;;;;;;;;;;;;;;21.17;58.54;100773.34;5059131;28;1713;-63
2022/11/08 11:19:16;;;;;;;;;;;;;;;21.17;58.45;100774.09;5059965;28;2307;-62
2022/11/08 11:21:42;;;;;;;;;;;;;;;21.18;58.42;100769.81;5059457;28;1722;-62
2022/11/08 11:24:18;;;;;;;;;;;;;;;21.16;58.67;100766.84;5061672;28;1973;-62
2022/11/08 11:26:55;;;;;;;;;;;;;;;21.21;58.44;100765.63;5057062;28;1692;-62
2022/11/08 11:29:25;;;;;;;;;;;;;;;21.22;58.70;100761.34;5069113;28;2495;-61
2022/11/08 11:31:52;;;;;;;;;;;;;;;21.22;58.51;100764.22;5072246;28;2201;-63
2022/11/08 11:34:18;;;;;;;;;;;;;;;21.23;58.65;100768.56;5064866;28;2930;-64
2022/11/08 11:36:46;;;;;;;;;;;;;;;21.25;58.24;100760.00;5073526;28;3017;-65
2022/11/08 11:39:15;;;;;;;;;;;;;;;21.25;58.60;100757.13;5073848;28;2576;-63
2022/11/08 11:41:41;;;;;;;;;;;;;;;21.23;58.58;100754.16;5075036;28;2344;-64
2022/11/08 11:44:17;;;;;;;;;;;;;;;21.26;58.34;100755.00;5080444;28;2678;-68
2022/11/08 11:46:49;;;;;;;;;;;;;;;21.27;58.56;100747.84;5071316;28;2401;-64
2022/11/08 11:49:18;;;;;;;;;;;;;;;21.27;58.47;100742.81;5036984;28;1801;-63
2022/11/08 11:51:44;;;;;;;;;;;;;;;21.27;58.32;100742.09;5074605;28;1707;-64
2022/11/08 11:54:12;;;;;;;;;;;;;;;21.27;58.30;100731.31;5071962;28;1607;-61
2022/11/08 11:56:57;;;;;;;;;;;;;;;21.28;58.50;100727.03;5076007;28;1559;-61
2022/11/08 11:59:56;;;;;;;;;;;;;;;21.18;58.69;100731.63;5072982;28;1623;-61
2022/11/08 12:02:25;;;;;;;;;;;;;;;21.16;58.79;100732.28;5050489;28;1721;-61
2022/11/08 12:04:58;;;;;;;;;;;;;;;21.17;58.72;100722.25;5072813;28;1985;-61
2022/11/08 12:07:33;;;;;;;;;;;;;;;21.23;58.58;100713.84;5070315;28;1806;-62
2022/11/08 12:10:18;;;;;;;;;;;;;;;21.27;58.23;100711.13;5073585;28;1641;-61
2022/11/08 12:12:55;;;;;;;;;;;;;;;21.28;58.26;100712.63;5072996;28;1732;-62
2022/11/08 12:15:40;;;;;;;;;;;;;;;21.28;58.51;100701.13;5072762;28;1623;-61
2022/11/08 12:18:09;;;;;;;;;;;;;;;21.18;58.59;100706.44;5071424;28;1857;-61
2022/11/08 12:20:45;;;;;;;;;;;;;;;21.16;58.80;100697.72;5071737;28;1998;-61
2022/11/08 12:23:20;;;;;;;;;;;;;;;21.11;58.65;100698.97;5070771;28;1659;-61
2022/11/08 12:25:52;;;;;;;;;;;;;;;21.23;58.61;100696.56;5065405;28;1913;-61
2022/11/08 12:28:32;;;;;;;;;;;;;;;21.23;58.61;100695.84;5073084;28;1600;-60
2022/11/08 12:31:16;;;;;;;;;;;;;;;21.25;58.42;100693.78;5070821;28;1575;-61
2022/11/08 12:33:42;;;;;;;;;;;;;;;21.24;58.43;100698.06;5073914;28;1564;-61
2022/11/08 12:36:12;;;;;;;;;;;;;;;21.26;58.33;100695.28;5065480;28;1492;-65
2022/11/08 12:38:41;;;;;;;;;;;;;;;21.26;58.63;100692.41;5060173;28;1644;-63
2022/11/08 12:41:27;;;;;;;;;;;;;;;21.28;58.12;100691.72;5060616;28;1635;-63
2022/11/08 12:44:09;;;;;;;;;;;;;;;21.27;58.19;100682.34;5060960;28;1806;-63
2022/11/08 12:46:47;;;;;;;;;;;;;;;21.26;58.08;100678.00;5056296;28;1512;-63
2022/11/08 12:49:31;;;;;;;;;;;;;;;21.27;58.43;100679.47;5060653;28;1691;-63
2022/11/08 12:52:00;;;;;;;;;;;;;;;21.27;58.60;100673.69;5060076;28;1655;-63
2022/11/08 12:54:34;;;;;;;;;;;;;;;21.27;58.40;100667.94;5059807;28;1826;-63
2022/11/08 12:57:02;;;;;;;;;;;;;;;21.27;58.51;100662.19;5062925;28;1632;-63
2022/11/08 12:59:42;;;;;;;;;;;;;;;21.26;58.49;100660.72;5058968;28;1802;-63
2022/11/08 13:02:12;;;;;;;;;;;;;;;21.27;58.12;100659.31;5058758;28;1718;-63
2022/11/08 13:04:45;;;;;;;;;;;;;;;21.27;58.32;100656.44;5061691;28;1906;-63
2022/11/08 13:07:20;;;;;;;;;;;;;;;21.27;58.31;100650.66;5061500;28;1734;-63
2022/11/08 13:09:46;;;;;;;;;;;;;;;21.26;58.44;100642.69;5056553;28;1664;-64
2022/11/08 13:12:32;;;;;;;;;;;;;;;21.28;58.36;100634.13;5058933;28;1648;-63
2022/11/08 13:14:59;;;;;;;;;;;;;;;21.28;58.26;100634.88;5057267;28;1842;-63
2022/11/08 13:17:26;;;;;;;;;;;;;;;21.27;58.42;100630.50;5063428;28;1747;-63
2022/11/08 13:19:55;;;;;;;;;;;;;;;21.28;58.40;100622.59;5064659;28;1616;-63